Monday, February 08, 2016
02:01 UTC
  |  Log In   |  Register Free
Airport Search:

Page Field Airport
(KFMY)

FAA data valid effective Dec 10 2015 - Feb 4 2016 (unless otherwise noted).

 
 
 
 
 
 
 
 
 
 
 
 
 
 
Current Aviation Weather for KFMY

Weather Summary


The most recent METAR observation for FMY was updated at: 12:53 UTC
METAR for KFMY is not available. Closest METAR is for KRSW
KFMY  (most recent observation was updatred at 80:05 UTC)
080053Z 32006KT 10SM CLR 12/05 A3007 RMK AO2 SLP185 T01170050

KRSW  (6.5 nm NW)   (most recent observation was updated at 80:05 UTC)
080053Z AUTO 32005KT 10SM CLR 12/04 A3008 RMK AO2 SLP182 T01170044

KPGD  (21.1 nm SE)   (most recent observation was updated at 80:05 UTC)
080053Z AUTO 32008KT 10SM CLR 10/05 A3010 RMK AO2 SLP191 T01000050

TAF for KFMY is not available.
KFMY
072351Z 0800/0824 31011KT P6SM SKC FM080600 34005KT P6SM FEW250 FM081500 26007KT P6SM FEW030 SCT250 FM081800 26012KT P6SM SCT035 SCT250 FM082200 26013G21KT P6SM FEW030 SCT250

KRSW  (6.5 nm NW)   (most recent observation was updatred at 72:35 UTC)
072351Z 0800/0824 30011KT P6SM SKC FM080600 34005KT P6SM FEW250 FM081500 25007KT P6SM FEW030 SCT250 FM081800 25011KT P6SM SCT035 SCT250 FM082200 26012G20KT P6SM FEW030 SCT250


KPGD  (21.1 nm SE)   (most recent observation was updatred at 72:35 UTC)
072351Z 0800/0824 30009KT P6SM SKC FM080600 34005KT P6SM FEW250 FM081500 28008KT P6SM FEW030 SCT250 FM081800 25012KT P6SM SCT035 SCT250 FM082200 25014G22KT P6SM FEW030 SCT250
GlobalAir.com is loading additional information.
 Current Weather at FMY
53.0 F° (11.7 C°)

Northwest winds at 6.9 mph
Pressure:
30.07 in
Humidity:
64%
Wind:
Northwest at 6.9 mph
Dew Point:
41.0 F° (5.0 C°)
Visibility:
10.00 mi
FMY NOAA Radar




Find All Airport Services Find A Hotel Find A Rental Car Find A Golf Course Find A Restaurant $100 Hamburger



Airport Weather Forecast for KFMY

Translated METAR for KFMY (0053 UTC)
METAR:
KFMY 080053Z 32006KT 10SM CLR 12/05 A3007 RMK AO2 SLP185 T01170050
Conditions at:
KFMY (Page Field, FL) observed 0053 UTC 07 February 2016
Temperature:
12°C (53.6°F)
Dewpoint:
5°C (41°F) [RH = 62.3]
Pressure:
30.07 inches Hg (1018.3 mb)
pressure at sea level is 185 in Hg
Winds:
from the NW (320 degrees) at 6.9 mph (6 knots: 3.1 m/s)
Visibility:
10 mile(s)
Ceiling:
at least 12,000 feet AGL
Clouds:
Clear below 12,000 feet AGL
Remarks:
site is automated and HAS a precipitation sensor

FBO's on the Field
FBO Company Facility Photos Services Transportation Aviation Fuel Prices: Prices include tax
Catering Weather Repair Courtesy Rental Type 100LL JetA JetA+ MOGAS 8087
 
Base Operations at Page Field

Currently rated 5 by 2 people
FS:Avfuel
Last Updated: Feb-04
Login to update fuel prices
SS:
Contact Base Operations at Page FieldMore FBO Information
 
Add another FBO Facility Photos Catering Weather Repair Courtesy Rental Type 100LL JetA JetA+ MOGAS 8087
Services Transportation Aviation Fuel Prices: Prices include tax


model-print
model-print
model-print
model-print